Time;durP1;ratioP1;P1;durP2;ratioP2;P2;SDS_P1;SDS_P2;PMS_P1;PMS_P2;Temp;Humidity;BMP_temperature;BMP_pressure;BME280_temperature;BME280_humidity;BME280_pressure;Samples;Min_cycle;Max_cycle;Signal;HPM_P1;HPM_P2
2021/05/01 00:00:00;;;;;;;37.38;23.55;;;6.80;80.70;;;;;;5077372;28;20055;-70
2021/05/01 00:02:26;;;;;;;44.00;25.98;;;6.80;80.70;;;;;;5062697;28;20020;-70
2021/05/01 00:04:52;;;;;;;40.08;25.30;;;6.90;80.70;;;;;;5061393;28;20085;-70
2021/05/01 00:07:17;;;;;;;40.35;23.77;;;6.90;80.50;;;;;;5089288;28;20040;-70
2021/05/01 00:09:43;;;;;;;44.63;25.42;;;6.80;80.50;;;;;;5089973;28;20492;-70
2021/05/01 00:12:09;;;;;;;41.38;24.33;;;6.80;80.70;;;;;;5104571;28;20063;-70
2021/05/01 00:14:36;;;;;;;39.22;24.30;;;6.80;80.80;;;;;;5075317;28;20020;-70
2021/05/01 00:17:02;;;;;;;40.00;23.70;;;6.80;80.80;;;;;;5070078;28;20029;-70
2021/05/01 00:19:28;;;;;;;40.92;24.17;;;6.80;80.70;;;;;;5080173;28;20047;-70
2021/05/01 00:21:53;;;;;;;38.17;23.25;;;6.70;80.80;;;;;;5090356;28;20322;-70
2021/05/01 00:24:19;;;;;;;43.65;24.85;;;6.70;80.80;;;;;;5078400;28;20812;-70
2021/05/01 00:26:45;;;;;;;45.47;25.67;;;6.70;80.80;;;;;;5051950;28;20504;-70
2021/05/01 00:29:11;;;;;;;41.13;25.48;;;6.80;80.80;;;;;;5070944;28;20024;-70
2021/05/01 00:31:37;;;;;;;40.75;24.30;;;6.70;80.60;;;;;;5065269;28;20027;-70
2021/05/01 00:34:03;;;;;;;39.30;23.85;;;6.70;80.60;;;;;;5080719;28;20400;-70
2021/05/01 00:36:29;;;;;;;40.00;24.63;;;6.60;80.60;;;;;;5088076;28;20027;-70
2021/05/01 00:38:55;;;;;;;39.25;24.13;;;6.60;80.70;;;;;;5087362;28;20039;-70
2021/05/01 00:41:21;;;;;;;44.17;25.92;;;6.50;80.80;;;;;;5088504;28;20125;-69
2021/05/01 00:43:47;;;;;;;43.33;25.55;;;6.50;80.90;;;;;;5075473;28;20036;-70
2021/05/01 00:46:13;;;;;;;40.22;24.42;;;6.50;80.90;;;;;;5084938;28;20385;-70
2021/05/01 00:48:38;;;;;;;40.80;23.85;;;6.50;80.90;;;;;;5083954;28;20057;-70
2021/05/01 00:51:04;;;;;;;42.10;25.13;;;6.50;80.90;;;;;;5099333;28;20475;-70
2021/05/01 00:53:32;;;;;;;44.28;25.02;;;6.50;80.90;;;;;;5082622;28;20132;-70
2021/05/01 00:55:58;;;;;;;41.70;24.55;;;6.50;80.80;;;;;;5080529;28;20115;-70
2021/05/01 00:58:23;;;;;;;47.45;27.02;;;6.50;80.90;;;;;;5083482;28;20095;-70
2021/05/01 01:01:25;;;;;;;45.92;25.23;;;6.40;81.00;;;;;;5082046;28;20493;-70
2021/05/01 01:03:41;;;;;;;44.55;24.42;;;6.40;81.10;;;;;;5069284;28;20047;-70
2021/05/01 01:06:08;;;;;;;49.58;26.25;;;6.40;81.00;;;;;;5083481;28;20024;-70
2021/05/01 01:08:34;;;;;;;50.13;27.45;;;6.40;80.90;;;;;;5088421;28;20020;-70
2021/05/01 01:11:00;;;;;;;47.95;26.88;;;6.40;81.00;;;;;;5075342;28;20039;-70
2021/05/01 01:13:26;;;;;;;48.72;26.80;;;6.30;80.90;;;;;;5077631;28;20024;-70
2021/05/01 01:15:52;;;;;;;46.10;27.25;;;6.30;81.00;;;;;;5069360;28;20447;-70
2021/05/01 01:18:18;;;;;;;49.42;26.15;;;6.20;80.90;;;;;;5077365;28;20035;-70
2021/05/01 01:20:44;;;;;;;42.13;25.25;;;6.20;81.00;;;;;;5084715;28;20109;-70
2021/05/01 01:23:10;;;;;;;46.92;26.42;;;6.20;81.20;;;;;;5081818;28;20527;-70
2021/05/01 01:25:36;;;;;;;46.28;26.08;;;6.10;81.40;;;;;;5083266;28;20103;-70
2021/05/01 01:28:02;;;;;;;50.75;27.90;;;6.20;81.60;;;;;;5076117;28;20524;-70
2021/05/01 01:30:32;;;;;;;46.33;26.38;;;6.20;81.70;;;;;;5069953;28;20044;-70
2021/05/01 01:33:06;;;;;;;49.88;26.85;;;6.20;81.70;;;;;;5077164;28;20032;-70
2021/05/01 01:35:31;;;;;;;49.50;27.52;;;6.20;81.80;;;;;;5082646;28;20067;-70
2021/05/01 01:37:57;;;;;;;45.80;26.23;;;6.20;81.60;;;;;;5085055;28;20063;-70
2021/05/01 01:40:24;;;;;;;48.47;26.27;;;6.20;81.60;;;;;;5087569;28;20494;-70
2021/05/01 01:42:50;;;;;;;45.45;26.42;;;6.20;81.60;;;;;;5087993;28;20063;-70
2021/05/01 01:45:18;;;;;;;49.20;25.85;;;6.20;81.80;;;;;;5075715;28;20116;-70
2021/05/01 01:47:44;;;;;;;46.45;26.58;;;6.20;81.90;;;;;;5074559;28;20032;-70
2021/05/01 01:50:14;;;;;;;50.05;27.17;;;6.20;81.90;;;;;;5099445;28;20020;-70
2021/05/01 01:52:41;;;;;;;49.10;27.95;;;6.30;82.00;;;;;;5089269;28;20024;-69
2021/05/01 01:55:12;;;;;;;48.88;26.90;;;6.30;81.90;;;;;;5095571;28;20016;-70
2021/05/01 01:57:38;;;;;;;51.88;28.13;;;6.30;82.00;;;;;;5096671;28;20103;-69
2021/05/01 02:00:10;;;;;;;52.67;26.42;;;6.40;82.00;;;;;;5086475;28;20074;-70
2021/05/01 02:02:36;;;;;;;47.90;26.42;;;6.40;82.00;;;;;;5082136;28;20051;-70
2021/05/01 02:05:02;;;;;;;49.88;27.25;;;6.40;81.80;;;;;;5088717;28;20032;-69
2021/05/01 02:07:28;;;;;;;49.67;26.55;;;6.40;81.80;;;;;;5082883;28;20483;-69
2021/05/01 02:09:53;;;;;;;47.13;26.58;;;6.30;81.70;;;;;;5092115;28;20143;-70
2021/05/01 02:12:19;;;;;;;48.35;26.65;;;6.30;81.70;;;;;;5078609;28;20063;-69
2021/05/01 02:14:45;;;;;;;53.30;28.33;;;6.30;81.80;;;;;;5086254;28;20754;-69
2021/05/01 02:17:11;;;;;;;49.83;27.40;;;6.20;81.50;;;;;;5074886;28;20036;-70
2021/05/01 02:19:37;;;;;;;47.30;26.40;;;6.20;81.70;;;;;;5083318;28;20120;-68
2021/05/01 02:22:02;;;;;;;49.45;27.13;;;6.20;81.80;;;;;;5072271;28;20059;-69
2021/05/01 02:24:28;;;;;;;48.47;26.92;;;6.20;82.00;;;;;;5077595;28;20033;-69
2021/05/01 02:26:54;;;;;;;54.65;27.67;;;6.20;82.10;;;;;;5071992;28;20035;-69
2021/05/01 02:29:20;;;;;;;54.25;27.17;;;6.20;82.00;;;;;;5085643;28;20051;-69
2021/05/01 02:31:45;;;;;;;52.75;26.95;;;6.20;82.00;;;;;;5082709;28;20063;-69
2021/05/01 02:34:11;;;;;;;49.78;26.52;;;6.20;82.50;;;;;;5153846;22;20070;-68
2021/05/01 02:36:36;;;;;;;52.15;26.67;;;6.10;81.90;;;;;;5088447;28;20039;-70
2021/05/01 02:39:04;;;;;;;51.78;26.65;;;6.10;81.80;;;;;;5082125;28;20571;-69
2021/05/01 02:41:30;;;;;;;51.30;28.30;;;6.10;81.90;;;;;;5091785;28;20107;-70
2021/05/01 02:43:55;;;;;;;63.90;27.17;;;6.10;81.90;;;;;;5089971;28;20070;-70
2021/05/01 02:46:21;;;;;;;57.75;27.52;;;6.00;81.90;;;;;;5091789;28;20039;-69
2021/05/01 02:48:46;;;;;;;49.40;25.40;;;6.00;82.00;;;;;;5089325;28;20024;-70
2021/05/01 02:51:12;;;;;;;69.68;27.85;;;6.00;82.00;;;;;;5089164;28;20472;-70
2021/05/01 02:53:37;;;;;;;68.47;27.30;;;5.90;82.00;;;;;;5084705;28;20404;-70
2021/05/01 02:56:03;;;;;;;76.18;26.27;;;5.90;82.10;;;;;;5090635;28;20031;-70
2021/05/01 02:58:29;;;;;;;86.95;27.55;;;5.80;82.10;;;;;;5090237;28;20548;-68
2021/05/01 03:00:55;;;;;;;61.65;27.88;;;5.80;82.30;;;;;;5091462;28;20034;-68
2021/05/01 03:03:21;;;;;;;62.70;28.25;;;5.90;83.10;;;;;;5071490;28;20383;-70
2021/05/01 03:05:46;;;;;;;101.85;28.35;;;5.90;82.60;;;;;;5097380;28;20043;-69
2021/05/01 03:08:12;;;;;;;108.85;25.33;;;5.80;82.60;;;;;;5099846;28;20036;-69
2021/05/01 03:10:38;;;;;;;71.97;25.92;;;5.80;82.50;;;;;;5091470;28;20103;-70
2021/05/01 03:13:03;;;;;;;90.97;27.13;;;5.80;82.60;;;;;;5090678;28;20036;-70
2021/05/01 03:15:29;;;;;;;65.72;25.15;;;5.80;82.60;;;;;;5089332;28;20047;-69
2021/05/01 03:17:56;;;;;;;65.60;26.80;;;5.80;82.80;;;;;;5073096;28;20044;-70
2021/05/01 03:20:21;;;;;;;91.22;28.15;;;5.80;82.80;;;;;;5090647;28;20024;-70
2021/05/01 03:22:48;;;;;;;58.80;25.33;;;5.90;82.90;;;;;;5091026;28;20446;-68
2021/05/01 03:25:14;;;;;;;80.43;26.85;;;5.90;83.00;;;;;;5070640;28;20452;-70
2021/05/01 03:27:40;;;;;;;70.53;25.60;;;5.90;82.90;;;;;;5071535;28;20074;-67
2021/05/01 03:30:09;;;;;;;55.83;26.50;;;5.80;82.80;;;;;;5085240;28;20044;-69
2021/05/01 03:32:35;;;;;;;63.10;26.58;;;5.80;83.00;;;;;;5096178;28;20020;-70
2021/05/01 03:35:01;;;;;;;70.35;26.90;;;5.80;83.10;;;;;;5094572;28;20383;-69
2021/05/01 03:37:26;;;;;;;67.65;25.13;;;5.90;83.20;;;;;;5102090;28;20081;-69
2021/05/01 03:39:52;;;;;;;91.28;26.25;;;5.80;83.20;;;;;;5071740;28;20077;-70
2021/05/01 03:42:18;;;;;;;59.08;24.65;;;5.80;83.10;;;;;;5089969;28;21776;-70
2021/05/01 03:44:44;;;;;;;67.63;25.48;;;5.80;83.10;;;;;;5088351;28;20367;-70
2021/05/01 03:47:10;;;;;;;153.38;25.55;;;5.80;83.30;;;;;;5106330;28;20027;-70
2021/05/01 03:49:35;;;;;;;113.60;24.90;;;5.80;83.20;;;;;;5092372;28;20452;-70
2021/05/01 03:52:01;;;;;;;67.90;24.58;;;5.80;83.10;;;;;;5093578;28;20024;-71
2021/05/01 03:54:27;;;;;;;90.57;26.23;;;5.80;83.10;;;;;;5070306;28;20027;-70
2021/05/01 03:56:52;;;;;;;77.65;26.10;;;5.80;83.40;;;;;;5089291;28;20731;-71
2021/05/01 03:59:18;;;;;;;58.60;26.10;;;5.80;83.40;;;;;;5090547;28;20372;-70
2021/05/01 04:01:44;;;;;;;138.07;26.30;;;5.80;83.50;;;;;;5089785;28;20028;-70
2021/05/01 04:04:10;;;;;;;88.30;25.15;;;5.80;83.50;;;;;;5069679;28;20043;-70
2021/05/01 04:06:37;;;;;;;185.48;26.95;;;5.80;83.30;;;;;;5071524;28;20570;-70
2021/05/01 04:09:03;;;;;;;148.20;25.13;;;5.90;83.10;;;;;;5089574;28;20043;-71
2021/05/01 04:11:29;;;;;;;270.80;28.30;;;5.80;83.00;;;;;;5089049;28;20024;-71
2021/05/01 04:13:55;;;;;;;147.20;25.73;;;5.80;83.00;;;;;;5068780;28;20389;-70
2021/05/01 04:16:21;;;;;;;190.20;26.38;;;5.70;83.10;;;;;;5089215;28;20088;-70
2021/05/01 04:18:47;;;;;;;100.15;27.92;;;5.70;83.30;;;;;;5086889;28;20039;-68
2021/05/01 04:21:14;;;;;;;90.70;28.48;;;5.70;83.40;;;;;;5095371;28;20032;-70
2021/05/01 04:23:40;;;;;;;122.82;28.08;;;5.70;83.70;;;;;;5089356;28;20077;-70
2021/05/01 04:26:06;;;;;;;148.43;27.75;;;5.70;83.70;;;;;;5088842;28;20039;-70
2021/05/01 04:28:31;;;;;;;107.03;26.25;;;5.80;83.60;;;;;;5089457;28;20035;-68
2021/05/01 04:30:57;;;;;;;199.35;25.25;;;5.80;83.70;;;;;;5089410;28;20503;-70
2021/05/01 04:33:23;;;;;;;198.95;25.83;;;5.80;83.60;;;;;;5088515;28;20148;-70
2021/05/01 04:35:49;;;;;;;159.65;26.95;;;5.80;83.30;;;;;;5088629;28;20505;-68
2021/05/01 04:38:16;;;;;;;153.43;27.27;;;5.70;83.30;;;;;;5089346;28;20024;-70
2021/05/01 04:40:42;;;;;;;185.73;25.58;;;5.70;83.60;;;;;;5088512;28;20085;-70
2021/05/01 04:43:09;;;;;;;82.60;26.65;;;5.70;83.70;;;;;;5088018;28;20043;-70
2021/05/01 04:45:36;;;;;;;94.00;26.05;;;5.70;83.70;;;;;;5088060;28;20034;-70
2021/05/01 04:48:02;;;;;;;122.78;27.13;;;5.70;83.90;;;;;;5062551;28;20028;-70
2021/05/01 04:50:27;;;;;;;151.70;27.02;;;5.70;83.70;;;;;;5084229;28;20032;-70
2021/05/01 04:52:53;;;;;;;172.82;25.88;;;5.70;83.70;;;;;;5073392;28;20032;-69
2021/05/01 04:55:19;;;;;;;90.43;28.38;;;5.70;83.80;;;;;;5087473;28;20027;-70
2021/05/01 04:57:46;;;;;;;77.53;27.13;;;5.70;83.80;;;;;;5086599;28;20134;-69
2021/05/01 05:00:13;;;;;;;91.53;28.52;;;5.70;84.00;;;;;;5098519;28;20035;-70
2021/05/01 05:02:39;;;;;;;67.70;27.35;;;5.80;84.20;;;;;;5089187;28;20028;-70
2021/05/01 05:05:07;;;;;;;162.45;27.13;;;5.80;84.20;;;;;;5072050;28;20024;-70
2021/05/01 05:07:32;;;;;;;114.50;28.10;;;5.90;84.20;;;;;;5088310;28;20063;-69
2021/05/01 05:09:58;;;;;;;98.47;28.42;;;5.90;84.00;;;;;;5087047;28;20544;-70
2021/05/01 05:12:24;;;;;;;131.00;28.90;;;5.90;84.00;;;;;;5089394;28;20031;-70
2021/05/01 05:14:49;;;;;;;138.48;27.90;;;5.90;84.00;;;;;;5069958;28;20392;-70
2021/05/01 05:17:15;;;;;;;126.25;29.23;;;5.90;83.90;;;;;;5071462;28;20039;-70
2021/05/01 05:19:40;;;;;;;151.25;29.63;;;5.90;84.10;;;;;;5088414;28;20093;-70
2021/05/01 05:22:06;;;;;;;218.40;28.42;;;5.90;84.10;;;;;;5089216;28;20032;-70
2021/05/01 05:24:32;;;;;;;124.85;27.33;;;6.00;84.20;;;;;;5087180;28;20047;-70
2021/05/01 05:26:58;;;;;;;66.68;27.77;;;6.00;84.00;;;;;;5087098;28;20043;-71
2021/05/01 05:29:23;;;;;;;124.18;28.00;;;6.00;84.00;;;;;;5091994;28;20740;-70
2021/05/01 05:31:49;;;;;;;97.60;29.52;;;6.00;84.00;;;;;;5075113;28;20077;-70
2021/05/01 05:34:14;;;;;;;157.13;28.02;;;6.00;84.20;;;;;;5088554;28;20028;-70
2021/05/01 05:36:40;;;;;;;116.72;25.75;;;6.00;84.80;;;;;;5093089;28;20100;-71
2021/05/01 05:39:07;;;;;;;85.72;27.77;;;6.00;84.30;;;;;;5092744;28;20537;-69
2021/05/01 05:41:33;;;;;;;83.40;29.63;;;6.00;84.20;;;;;;5074312;28;20157;-70
2021/05/01 05:43:59;;;;;;;95.93;29.50;;;6.10;84.20;;;;;;5091371;28;20150;-70
2021/05/01 05:46:26;;;;;;;98.68;28.77;;;6.10;84.40;;;;;;5092991;28;20160;-69
2021/05/01 05:48:51;;;;;;;83.25;28.85;;;6.10;84.50;;;;;;5088737;28;20372;-70
2021/05/01 05:51:17;;;;;;;68.38;27.65;;;6.20;84.40;;;;;;5091363;28;20115;-70
2021/05/01 05:53:42;;;;;;;62.50;28.65;;;6.20;84.60;;;;;;5088777;28;20082;-70
2021/05/01 05:56:08;;;;;;;63.47;28.55;;;6.20;84.50;;;;;;5082643;28;20043;-70
2021/05/01 05:58:34;;;;;;;70.03;28.67;;;6.30;84.40;;;;;;5072160;28;20123;-70
2021/05/01 06:01:00;;;;;;;58.85;27.55;;;6.20;84.20;;;;;;5090911;28;20059;-70
2021/05/01 06:03:28;;;;;;;66.35;29.15;;;6.20;84.40;;;;;;5073948;28;20381;-70
2021/05/01 06:06:04;;;;;;;66.22;29.30;;;6.30;84.50;;;;;;5072606;28;20032;-70
2021/05/01 06:08:32;;;;;;;61.55;28.58;;;6.30;84.50;;;;;;5090204;28;20028;-70
2021/05/01 06:11:01;;;;;;;60.05;28.60;;;6.40;84.30;;;;;;5088345;28;20592;-70
2021/05/01 06:13:31;;;;;;;52.13;28.75;;;6.40;84.40;;;;;;5092893;28;20081;-70
2021/05/01 06:15:58;;;;;;;54.40;29.60;;;6.50;84.20;;;;;;5086285;28;20111;-70
2021/05/01 06:18:26;;;;;;;50.33;26.98;;;6.70;84.60;;;;;;5091413;28;20404;-70
2021/05/01 06:20:52;;;;;;;46.95;26.27;;;6.80;84.70;;;;;;5092065;28;20028;-67
2021/05/01 06:23:19;;;;;;;48.30;26.23;;;7.00;84.40;;;;;;5092775;28;20070;-68
2021/05/01 06:25:48;;;;;;;48.33;27.25;;;7.20;84.30;;;;;;5090349;28;20024;-71
2021/05/01 06:28:14;;;;;;;49.47;26.38;;;7.30;84.40;;;;;;5072701;28;20084;-68
2021/05/01 06:30:42;;;;;;;45.50;26.63;;;7.40;84.30;;;;;;5072866;28;20411;-67
2021/05/01 06:33:11;;;;;;;51.85;27.83;;;7.50;84.30;;;;;;5073850;28;20021;-70
2021/05/01 06:35:41;;;;;;;49.10;28.30;;;7.50;84.30;;;;;;5090012;28;20119;-68
2021/05/01 06:38:08;;;;;;;53.40;28.27;;;7.60;84.40;;;;;;5104007;28;20023;-70
2021/05/01 06:40:41;;;;;;;48.38;27.58;;;7.70;84.20;;;;;;5096255;28;20027;-70
2021/05/01 06:43:30;;;;;;;46.83;27.58;;;7.70;84.00;;;;;;5094465;28;20031;-70
2021/05/01 06:45:57;;;;;;;46.10;26.15;;;7.80;84.00;;;;;;5106491;28;20591;-68
2021/05/01 06:48:25;;;;;;;46.78;26.58;;;7.80;83.80;;;;;;5095814;28;20468;-68
2021/05/01 06:50:53;;;;;;;47.55;28.75;;;7.90;83.90;;;;;;5090025;28;20105;-69
2021/05/01 06:53:29;;;;;;;45.55;28.45;;;8.00;83.80;;;;;;5091008;28;20500;-69
2021/05/01 06:56:01;;;;;;;45.53;27.13;;;8.00;83.40;;;;;;5072328;28;20066;-70
2021/05/01 06:58:29;;;;;;;41.70;26.40;;;8.10;83.20;;;;;;5088042;28;20146;-69
2021/05/01 07:00:55;;;;;;;42.47;27.17;;;8.20;83.20;;;;;;5076017;28;20070;-70
2021/05/01 07:03:23;;;;;;;44.45;27.35;;;8.30;82.90;;;;;;5082099;28;20063;-69
2021/05/01 07:05:49;;;;;;;38.78;24.90;;;8.50;82.80;;;;;;5089611;28;20079;-69
2021/05/01 07:08:15;;;;;;;43.35;26.40;;;8.60;82.60;;;;;;5068205;28;20065;-69
2021/05/01 07:10:41;;;;;;;38.22;25.10;;;8.70;82.40;;;;;;5091092;28;20019;-69
2021/05/01 07:13:13;;;;;;;37.92;24.73;;;8.90;82.10;;;;;;5087712;28;20020;-69
2021/05/01 07:15:40;;;;;;;38.05;24.48;;;9.00;81.90;;;;;;5082858;28;20119;-70
2021/05/01 07:18:08;;;;;;;34.55;22.85;;;9.20;81.40;;;;;;5089997;28;20024;-69
2021/05/01 07:20:34;;;;;;;35.92;23.83;;;9.50;81.00;;;;;;5090564;28;20035;-69
2021/05/01 07:22:59;;;;;;;37.67;24.45;;;9.50;80.90;;;;;;5091004;28;20032;-69
2021/05/01 07:25:25;;;;;;;37.08;23.88;;;9.60;80.80;;;;;;5090018;28;20028;-70
2021/05/01 07:28:10;;;;;;;39.92;24.98;;;9.70;80.40;;;;;;5072367;28;20468;-69
2021/05/01 07:30:45;;;;;;;35.88;22.50;;;9.80;80.10;;;;;;5087518;28;20016;-70
2021/05/01 07:33:31;;;;;;;33.75;22.60;;;9.80;79.90;;;;;;5072799;28;20056;-70
2021/05/01 07:36:03;;;;;;;37.50;23.33;;;9.90;79.70;;;;;;5070457;28;20032;-70
2021/05/01 07:38:31;;;;;;;35.63;24.30;;;9.90;79.30;;;;;;5077660;28;20028;-69
2021/05/01 07:41:01;;;;;;;36.92;23.75;;;9.90;79.20;;;;;;5072598;28;20400;-69
2021/05/01 07:43:29;;;;;;;38.72;24.33;;;9.90;79.20;;;;;;5089810;28;20026;-69
2021/05/01 07:45:57;;;;;;;35.45;23.45;;;10.10;79.00;;;;;;5070889;28;20031;-70
2021/05/01 07:48:27;;;;;;;37.42;24.17;;;10.30;78.80;;;;;;5064971;28;20157;-69
2021/05/01 07:50:55;;;;;;;36.92;24.52;;;10.50;78.30;;;;;;5083096;28;20396;-69
2021/05/01 07:53:21;;;;;;;35.00;23.38;;;10.40;78.00;;;;;;5083712;28;20103;-69
2021/05/01 07:55:46;;;;;;;31.98;22.48;;;10.60;77.50;;;;;;5094589;28;20111;-69
2021/05/01 07:58:12;;;;;;;35.55;24.25;;;10.70;77.20;;;;;;5089305;28;20040;-70
2021/05/01 08:00:37;;;;;;;36.90;23.95;;;10.70;76.80;;;;;;5089853;28;20024;-70
2021/05/01 08:03:05;;;;;;;34.83;23.17;;;10.80;76.80;;;;;;5090614;28;20063;-69
2021/05/01 08:05:31;;;;;;;38.95;23.85;;;10.80;76.90;;;;;;5070475;28;20062;-69
2021/05/01 08:07:57;;;;;;;37.30;24.45;;;10.80;76.70;;;;;;5094047;28;20425;-70
2021/05/01 08:10:22;;;;;;;37.13;24.40;;;10.90;76.50;;;;;;5089776;28;20020;-70
2021/05/01 08:12:48;;;;;;;36.63;23.83;;;10.90;76.70;;;;;;5066597;28;20028;-69
2021/05/01 08:15:14;;;;;;;36.00;23.85;;;10.80;76.60;;;;;;5071152;28;20047;-69
2021/05/01 08:17:41;;;;;;;39.17;24.02;;;10.80;76.70;;;;;;5090100;28;20027;-69
2021/05/01 08:20:09;;;;;;;36.28;23.98;;;10.80;76.70;;;;;;5089224;28;20024;-70
2021/05/01 08:22:36;;;;;;;36.20;24.65;;;10.70;76.40;;;;;;5089593;28;20032;-69
2021/05/01 08:25:04;;;;;;;35.88;24.10;;;10.70;76.40;;;;;;5066941;28;20035;-72
2021/05/01 08:27:29;;;;;;;38.95;24.13;;;10.70;76.20;;;;;;5087925;28;20027;-69
2021/05/01 08:29:55;;;;;;;39.03;23.92;;;10.70;76.00;;;;;;5081117;28;20028;-69
2021/05/01 08:32:21;;;;;;;38.38;23.73;;;10.70;76.10;;;;;;5084541;28;20028;-67
2021/05/01 08:37:14;;;;;;;36.78;24.23;;;10.90;76.00;;;;;;5059547;28;20049;-70
2021/05/01 08:39:40;;;;;;;35.47;24.20;;;11.00;75.90;;;;;;5064574;28;20495;-70
2021/05/01 08:42:06;;;;;;;36.17;22.55;;;11.00;75.80;;;;;;5070105;28;20427;-70
2021/05/01 08:44:31;;;;;;;33.78;23.58;;;11.00;75.70;;;;;;5047724;28;20036;-70
2021/05/01 08:46:57;;;;;;;38.92;24.38;;;11.00;75.50;;;;;;5068873;28;20111;-70
2021/05/01 08:49:23;;;;;;;36.85;23.23;;;11.00;75.50;;;;;;5068764;28;20029;-70
2021/05/01 08:51:48;;;;;;;33.80;22.13;;;11.00;75.40;;;;;;5069412;28;20368;-70
2021/05/01 08:54:15;;;;;;;37.58;22.63;;;11.00;75.50;;;;;;5068940;28;20016;-70
2021/05/01 08:56:42;;;;;;;35.72;23.17;;;11.00;75.60;;;;;;5069703;28;20070;-70
2021/05/01 08:59:07;;;;;;;36.63;23.38;;;11.10;75.90;;;;;;5067442;28;20039;-70
2021/05/01 09:01:37;;;;;;;34.22;23.17;;;11.10;74.70;;;;;;5070196;28;20392;-68
2021/05/01 09:04:08;;;;;;;33.35;22.23;;;11.10;74.70;;;;;;5071332;28;20032;-68
2021/05/01 09:06:35;;;;;;;36.63;23.33;;;11.10;74.40;;;;;;5074556;28;20017;-70
2021/05/01 09:09:05;;;;;;;34.08;22.98;;;11.00;74.60;;;;;;5074411;28;20669;-69
2021/05/01 09:11:38;;;;;;;37.47;23.90;;;11.00;74.50;;;;;;5076297;28;20519;-69
2021/05/01 09:14:18;;;;;;;32.95;22.75;;;11.00;74.50;;;;;;5056639;28;20395;-69
2021/05/01 09:16:44;;;;;;;35.20;23.10;;;11.00;74.50;;;;;;5066463;28;20548;-69
2021/05/01 09:19:10;;;;;;;33.83;22.65;;;11.00;74.70;;;;;;5074013;28;20063;-69
2021/05/01 09:21:37;;;;;;;32.17;21.98;;;11.00;74.80;;;;;;5072830;28;20063;-69
2021/05/01 09:24:05;;;;;;;33.25;22.02;;;11.00;74.70;;;;;;5072065;28;20032;-69
2021/05/01 09:26:35;;;;;;;31.92;21.55;;;11.00;74.70;;;;;;5073964;28;20024;-69
2021/05/01 09:29:01;;;;;;;35.63;22.85;;;11.00;74.50;;;;;;5072988;28;20094;-69
2021/05/01 09:31:37;;;;;;;34.63;22.42;;;11.00;74.40;;;;;;5062901;28;20029;-71
2021/05/01 09:34:03;;;;;;;33.83;22.63;;;10.90;74.20;;;;;;5071633;28;20183;-69
2021/05/01 09:36:29;;;;;;;34.97;23.05;;;10.90;74.40;;;;;;5067624;28;20033;-69
2021/05/01 09:38:55;;;;;;;35.05;21.77;;;10.90;74.30;;;;;;5070879;28;20112;-68
2021/05/01 09:41:23;;;;;;;31.42;21.17;;;11.00;74.10;;;;;;5069689;28;20155;-69
2021/05/01 09:44:04;;;;;;;34.20;22.67;;;11.00;73.70;;;;;;5072079;28;20108;-71
2021/05/01 09:46:53;;;;;;;29.15;19.77;;;11.20;73.80;;;;;;5061808;28;20035;-67
2021/05/01 09:49:25;;;;;;;33.80;21.27;;;11.40;74.50;;;;;;5054628;28;20029;-70
2021/05/01 09:51:59;;;;;;;34.63;23.17;;;11.60;74.40;;;;;;5073492;28;20480;-70
2021/05/01 09:54:26;;;;;;;33.40;22.73;;;11.90;73.80;;;;;;5071528;28;20029;-69
2021/05/01 09:56:54;;;;;;;37.47;23.40;;;12.00;73.50;;;;;;5073334;28;20535;-69
2021/05/01 09:59:20;;;;;;;32.25;22.52;;;12.10;73.00;;;;;;5071424;28;20044;-68
2021/05/01 10:02:00;;;;;;;37.75;23.30;;;12.30;73.10;;;;;;5071044;28;20082;-69
2021/05/01 10:04:27;;;;;;;34.47;22.60;;;12.60;72.90;;;;;;5065090;28;20491;-70
2021/05/01 10:06:59;;;;;;;31.42;19.95;;;12.80;72.50;;;;;;5050222;28;20044;-69
2021/05/01 10:09:32;;;;;;;29.08;19.45;;;13.00;72.60;;;;;;5054516;28;20020;-70
2021/05/01 10:12:11;;;;;;;;;;;13.20;73.20;;;;;;5055715;28;20021;-70
2021/05/01 10:14:50;;;;;;;30.00;19.40;;;13.30;72.60;;;;;;5070415;28;19935;-70
2021/05/01 10:17:22;;;;;;;29.88;19.08;;;13.40;72.00;;;;;;5072830;28;20033;-70
2021/05/01 10:19:55;;;;;;;30.45;20.30;;;13.40;71.50;;;;;;5072686;28;20028;-70
2021/05/01 10:22:43;;;;;;;29.30;20.77;;;13.50;71.30;;;;;;5072893;28;20070;-70
2021/05/01 10:25:11;;;;;;;29.80;20.05;;;13.50;70.90;;;;;;5054177;28;20400;-70
2021/05/01 10:33:48;;;;;;;26.67;17.95;;;13.70;70.60;;;;;;5069181;28;20398;-70
2021/05/01 10:36:00;;;;;;;27.35;18.65;;;13.90;70.40;;;;;;5057547;28;20063;-70
2021/05/01 10:38:26;;;;;;;43.97;29.38;;;14.20;70.50;;;;;;5054830;28;20028;-70
2021/05/01 10:40:54;;;;;;;30.63;21.90;;;14.40;70.20;;;;;;5054506;28;20444;-70
2021/05/01 10:43:25;;;;;;;31.63;22.48;;;14.50;69.80;;;;;;5072686;28;20139;-70
2021/05/01 10:46:05;;;;;;;34.10;22.48;;;14.50;69.00;;;;;;5071735;28;20020;-70
2021/05/01 10:48:34;;;;;;;31.10;22.02;;;14.50;68.50;;;;;;5071507;28;20027;-70
2021/05/01 10:51:05;;;;;;;30.67;21.58;;;14.50;68.80;;;;;;5071885;28;20036;-70
2021/05/01 10:53:31;;;;;;;30.42;21.67;;;14.40;68.80;;;;;;5072666;28;20021;-69
2021/05/01 10:55:57;;;;;;;34.90;22.45;;;14.30;68.70;;;;;;5071824;28;20360;-70
2021/05/01 10:58:45;;;;;;;31.08;21.25;;;14.30;68.70;;;;;;5070635;28;20162;-70
2021/05/01 11:01:28;;;;;;;33.40;21.35;;;14.30;68.20;;;;;;5072028;28;20111;-70
2021/05/01 11:03:58;;;;;;;31.40;22.20;;;14.40;68.40;;;;;;5069874;28;20021;-70
2021/05/01 11:06:26;;;;;;;31.48;21.63;;;14.40;68.70;;;;;;5064024;28;20028;-70
2021/05/01 11:09:25;;;;;;;28.00;20.73;;;14.50;68.10;;;;;;5054119;28;20016;-68
2021/05/01 11:11:58;;;;;;;31.33;21.52;;;14.60;68.00;;;;;;5025714;28;20558;-70
2021/05/01 11:14:28;;;;;;;32.08;21.80;;;14.60;67.90;;;;;;5066462;28;20028;-70
2021/05/01 11:17:32;;;;;;;30.67;20.50;;;14.50;67.20;;;;;;5053741;28;20123;-70
2021/05/01 11:20:02;;;;;;;34.80;20.58;;;14.40;67.50;;;;;;5048556;28;20050;-70
2021/05/01 11:22:28;;;;;;;27.38;19.20;;;14.40;67.60;;;;;;5071616;28;20024;-70
2021/05/01 11:24:57;;;;;;;29.85;20.23;;;14.30;67.60;;;;;;5051770;28;20154;-70
2021/05/01 11:27:24;;;;;;;27.15;19.85;;;14.20;67.50;;;;;;5071039;28;20028;-70
2021/05/01 11:29:50;;;;;;;29.65;19.33;;;14.20;67.40;;;;;;5069317;28;20029;-70
2021/05/01 11:32:17;;;;;;;28.98;20.05;;;14.10;67.40;;;;;;5071105;28;20485;-70
2021/05/01 11:34:49;;;;;;;27.48;18.90;;;14.00;67.40;;;;;;5069760;28;20040;-70
2021/05/01 11:37:14;;;;;;;25.73;18.77;;;13.80;67.20;;;;;;5071578;28;20349;-70
2021/05/01 11:39:41;;;;;;;26.35;18.65;;;13.80;67.30;;;;;;5071488;28;20493;-70
2021/05/01 11:42:07;;;;;;;23.70;17.95;;;13.60;67.30;;;;;;5071329;28;20077;-70
2021/05/01 11:44:33;;;;;;;85.30;55.60;;;13.50;67.50;;;;;;5070206;28;20034;-69
2021/05/01 11:47:05;;;;;;;27.02;19.35;;;13.40;67.70;;;;;;5071113;28;20040;-69
2021/05/01 11:49:30;;;;;;;26.88;17.48;;;13.40;67.90;;;;;;5065901;28;20017;-70
2021/05/01 11:52:02;;;;;;;31.77;18.40;;;13.30;67.80;;;;;;5067524;28;20031;-69
2021/05/01 11:54:46;;;;;;;24.83;18.00;;;13.30;67.80;;;;;;5051221;28;20059;-69
2021/05/01 11:57:23;;;;;;;26.08;18.45;;;13.20;67.90;;;;;;5071149;28;20028;-70
2021/05/01 11:59:51;;;;;;;25.35;17.98;;;13.20;68.10;;;;;;5071095;28;20033;-69
2021/05/01 12:02:20;;;;;;;25.83;17.70;;;13.10;68.10;;;;;;5071017;28;20024;-70
2021/05/01 12:04:51;;;;;;;24.83;17.50;;;13.00;68.20;;;;;;5047833;28;20441;-69
2021/05/01 12:07:25;;;;;;;26.33;17.67;;;13.00;68.20;;;;;;5069238;28;20052;-71
2021/05/01 12:09:52;;;;;;;27.00;18.58;;;12.90;68.40;;;;;;5070738;28;20362;-71
2021/05/01 12:12:20;;;;;;;25.15;17.60;;;12.80;68.30;;;;;;5070130;28;20096;-71
2021/05/01 12:14:47;;;;;;;24.23;17.15;;;12.80;68.40;;;;;;5063525;28;20119;-71
2021/05/01 12:17:15;;;;;;;24.70;16.38;;;12.80;68.40;;;;;;5070424;28;20052;-70
2021/05/01 12:19:46;;;;;;;28.08;17.20;;;12.80;68.50;;;;;;5069893;28;20063;-70
2021/05/01 12:22:25;;;;;;;23.00;16.75;;;12.90;68.60;;;;;;5070676;28;20020;-70
2021/05/01 12:24:51;;;;;;;24.67;16.83;;;12.90;68.40;;;;;;5051991;28;20031;-70
2021/05/01 12:27:50;;;;;;;26.83;18.65;;;13.00;68.50;;;;;;5070639;28;20032;-70
2021/05/01 12:30:40;;;;;;;25.13;17.40;;;13.00;68.70;;;;;;5060912;28;20040;-70
2021/05/01 12:33:45;;;;;;;22.60;16.52;;;13.10;69.00;;;;;;5063254;28;20024;-70
2021/05/01 12:36:12;;;;;;;25.58;16.48;;;13.20;68.80;;;;;;5065274;28;20024;-70
2021/05/01 12:38:41;;;;;;;26.55;17.75;;;13.30;68.60;;;;;;5069937;28;20162;-70
2021/05/01 12:41:06;;;;;;;24.33;17.50;;;13.30;68.50;;;;;;5068905;28;20099;-69
2021/05/01 12:43:32;;;;;;;22.30;16.20;;;13.50;68.50;;;;;;5067538;28;20162;-70
2021/05/01 12:45:59;;;;;;;21.17;15.98;;;13.60;68.70;;;;;;5050799;28;20111;-70